sensor_id;sensor_type;location;lat;lon;timestamp;temperature;humidity
71942;DHT22;59997;53.300;-6.260;2024-03-29T00:00:40;0.81;92.31
71942;DHT22;59997;53.300;-6.260;2024-03-29T00:03:06;0.91;92.36
71942;DHT22;59997;53.300;-6.260;2024-03-29T00:05:34;0.77;92.30
71942;DHT22;59997;53.300;-6.260;2024-03-29T00:08:00;0.73;92.34
71942;DHT22;59997;53.300;-6.260;2024-03-29T00:10:26;0.96;92.58
71942;DHT22;59997;53.300;-6.260;2024-03-29T00:12:51;0.92;92.55
71942;DHT22;59997;53.300;-6.260;2024-03-29T00:15:17;0.80;92.50
71942;DHT22;59997;53.300;-6.260;2024-03-29T00:17:42;0.71;92.42
71942;DHT22;59997;53.300;-6.260;2024-03-29T00:20:08;0.84;92.48
71942;DHT22;59997;53.300;-6.260;2024-03-29T00:22:34;0.88;92.56
71942;DHT22;59997;53.300;-6.260;2024-03-29T00:25:00;0.80;92.50
71942;DHT22;59997;53.300;-6.260;2024-03-29T00:27:26;0.80;92.54
71942;DHT22;59997;53.300;-6.260;2024-03-29T00:29:53;0.71;92.59
71942;DHT22;59997;53.300;-6.260;2024-03-29T00:32:20;0.74;92.60
71942;DHT22;59997;53.300;-6.260;2024-03-29T00:34:45;0.70;92.61
71942;DHT22;59997;53.300;-6.260;2024-03-29T00:37:11;0.87;92.61
71942;DHT22;59997;53.300;-6.260;2024-03-29T00:39:36;1.05;92.56
71942;DHT22;59997;53.300;-6.260;2024-03-29T00:42:03;1.37;92.59
71942;DHT22;59997;53.300;-6.260;2024-03-29T00:44:29;1.60;92.49
71942;DHT22;59997;53.300;-6.260;2024-03-29T00:46:55;1.65;92.43
71942;DHT22;59997;53.300;-6.260;2024-03-29T00:49:20;1.58;92.21
71942;DHT22;59997;53.300;-6.260;2024-03-29T00:51:46;1.54;92.25
71942;DHT22;59997;53.300;-6.260;2024-03-29T00:54:11;1.70;92.26
71942;DHT22;59997;53.300;-6.260;2024-03-29T00:56:36;1.79;92.04
71942;DHT22;59997;53.300;-6.260;2024-03-29T00:59:02;1.71;91.96
71942;DHT22;59997;53.300;-6.260;2024-03-29T01:01:27;1.57;91.93
71942;DHT22;59997;53.300;-6.260;2024-03-29T01:03:53;1.47;91.96
71942;DHT22;59997;53.300;-6.260;2024-03-29T01:06:19;1.46;91.96
71942;DHT22;59997;53.300;-6.260;2024-03-29T01:08:44;1.35;92.05
71942;DHT22;59997;53.300;-6.260;2024-03-29T01:11:10;1.16;92.04
71942;DHT22;59997;53.300;-6.260;2024-03-29T01:13:36;1.15;92.12
71942;DHT22;59997;53.300;-6.260;2024-03-29T01:16:01;1.12;92.12
71942;DHT22;59997;53.300;-6.260;2024-03-29T01:18:27;1.18;92.15
71942;DHT22;59997;53.300;-6.260;2024-03-29T01:20:52;1.18;92.21
71942;DHT22;59997;53.300;-6.260;2024-03-29T01:23:18;1.13;92.29
71942;DHT22;59997;53.300;-6.260;2024-03-29T01:25:43;1.30;92.33
71942;DHT22;59997;53.300;-6.260;2024-03-29T01:28:09;1.25;92.29
71942;DHT22;59997;53.300;-6.260;2024-03-29T01:30:34;1.28;92.34
71942;DHT22;59997;53.300;-6.260;2024-03-29T01:32:59;1.46;92.36
71942;DHT22;59997;53.300;-6.260;2024-03-29T01:35:25;1.28;92.32
71942;DHT22;59997;53.300;-6.260;2024-03-29T01:37:50;1.42;92.33
71942;DHT22;59997;53.300;-6.260;2024-03-29T01:40:16;1.50;92.28
71942;DHT22;59997;53.300;-6.260;2024-03-29T01:42:41;1.39;92.25
71942;DHT22;59997;53.300;-6.260;2024-03-29T01:45:07;1.44;92.23
71942;DHT22;59997;53.300;-6.260;2024-03-29T01:47:33;1.46;92.22
71942;DHT22;59997;53.300;-6.260;2024-03-29T01:49:59;1.72;92.16
71942;DHT22;59997;53.300;-6.260;2024-03-29T01:52:25;1.79;92.03
71942;DHT22;59997;53.300;-6.260;2024-03-29T01:54:50;1.70;91.92
71942;DHT22;59997;53.300;-6.260;2024-03-29T01:57:16;1.92;91.87
71942;DHT22;59997;53.300;-6.260;2024-03-29T01:59:42;2.03;91.79
71942;DHT22;59997;53.300;-6.260;2024-03-29T02:02:11;2.29;91.26
71942;DHT22;59997;53.300;-6.260;2024-03-29T02:04:36;2.31;91.27
71942;DHT22;59997;53.300;-6.260;2024-03-29T02:07:03;2.50;91.18
71942;DHT22;59997;53.300;-6.260;2024-03-29T02:09:29;2.61;91.05
71942;DHT22;59997;53.300;-6.260;2024-03-29T02:11:54;2.78;90.64
71942;DHT22;59997;53.300;-6.260;2024-03-29T02:14:20;2.88;90.01
71942;DHT22;59997;53.300;-6.260;2024-03-29T02:16:46;3.24;90.24
71942;DHT22;59997;53.300;-6.260;2024-03-29T02:19:11;3.35;89.75
71942;DHT22;59997;53.300;-6.260;2024-03-29T02:21:38;3.59;89.37
71942;DHT22;59997;53.300;-6.260;2024-03-29T02:24:07;3.62;89.73
71942;DHT22;59997;53.300;-6.260;2024-03-29T02:26:33;3.78;89.48
71942;DHT22;59997;53.300;-6.260;2024-03-29T02:29:02;3.83;89.37
71942;DHT22;59997;53.300;-6.260;2024-03-29T02:31:28;3.68;89.55
71942;DHT22;59997;53.300;-6.260;2024-03-29T02:33:54;3.59;89.51
71942;DHT22;59997;53.300;-6.260;2024-03-29T02:36:19;3.75;89.75
71942;DHT22;59997;53.300;-6.260;2024-03-29T02:38:44;3.65;89.75
71942;DHT22;59997;53.300;-6.260;2024-03-29T02:41:10;3.34;89.68
71942;DHT22;59997;53.300;-6.260;2024-03-29T02:43:35;3.44;89.84
71942;DHT22;59997;53.300;-6.260;2024-03-29T02:46:01;3.32;89.69
71942;DHT22;59997;53.300;-6.260;2024-03-29T02:48:26;3.17;89.84
71942;DHT22;59997;53.300;-6.260;2024-03-29T02:50:52;3.04;89.56
71942;DHT22;59997;53.300;-6.260;2024-03-29T02:53:17;2.95;89.76
71942;DHT22;59997;53.300;-6.260;2024-03-29T02:55:43;2.72;89.75
71942;DHT22;59997;53.300;-6.260;2024-03-29T02:58:08;2.57;89.95
71942;DHT22;59997;53.300;-6.260;2024-03-29T03:00:34;2.38;90.17
71942;DHT22;59997;53.300;-6.260;2024-03-29T03:02:59;2.30;90.35
71942;DHT22;59997;53.300;-6.260;2024-03-29T03:05:24;2.27;90.61
71942;DHT22;59997;53.300;-6.260;2024-03-29T03:07:50;2.37;90.86
71942;DHT22;59997;53.300;-6.260;2024-03-29T03:10:34;2.69;91.14
71942;DHT22;59997;53.300;-6.260;2024-03-29T03:13:18;2.89;91.32
71942;DHT22;59997;53.300;-6.260;2024-03-29T03:15:44;3.26;91.30
71942;DHT22;59997;53.300;-6.260;2024-03-29T03:18:09;3.85;91.24
71942;DHT22;59997;53.300;-6.260;2024-03-29T03:20:35;4.08;90.88
71942;DHT22;59997;53.300;-6.260;2024-03-29T03:23:00;4.20;90.47
71942;DHT22;59997;53.300;-6.260;2024-03-29T03:25:27;4.39;90.46
71942;DHT22;59997;53.300;-6.260;2024-03-29T03:27:53;4.74;90.40
71942;DHT22;59997;53.300;-6.260;2024-03-29T03:30:18;5.36;89.82
71942;DHT22;59997;53.300;-6.260;2024-03-29T03:32:44;5.50;89.75
71942;DHT22;59997;53.300;-6.260;2024-03-29T03:35:09;5.47;89.75
71942;DHT22;59997;53.300;-6.260;2024-03-29T03:37:35;5.43;89.76
71942;DHT22;59997;53.300;-6.260;2024-03-29T03:40:00;5.47;89.36
71942;DHT22;59997;53.300;-6.260;2024-03-29T03:42:26;5.32;89.50
71942;DHT22;59997;53.300;-6.260;2024-03-29T03:44:51;5.15;89.57
71942;DHT22;59997;53.300;-6.260;2024-03-29T03:47:17;5.15;89.63
71942;DHT22;59997;53.300;-6.260;2024-03-29T03:49:42;5.04;89.65
71942;DHT22;59997;53.300;-6.260;2024-03-29T03:52:09;4.84;89.67
71942;DHT22;59997;53.300;-6.260;2024-03-29T03:54:35;4.79;89.66
71942;DHT22;59997;53.300;-6.260;2024-03-29T03:57:00;4.67;89.63
71942;DHT22;59997;53.300;-6.260;2024-03-29T03:59:25;4.62;89.73
71942;DHT22;59997;53.300;-6.260;2024-03-29T04:01:51;4.50;89.80
71942;DHT22;59997;53.300;-6.260;2024-03-29T04:04:18;4.45;89.94
71942;DHT22;59997;53.300;-6.260;2024-03-29T04:06:44;4.35;90.04
71942;DHT22;59997;53.300;-6.260;2024-03-29T04:09:09;4.22;90.04
71942;DHT22;59997;53.300;-6.260;2024-03-29T04:11:35;4.04;90.07
71942;DHT22;59997;53.300;-6.260;2024-03-29T04:14:00;4.24;90.17
71942;DHT22;59997;53.300;-6.260;2024-03-29T04:16:26;4.24;90.20
71942;DHT22;59997;53.300;-6.260;2024-03-29T04:18:51;4.45;90.07
71942;DHT22;59997;53.300;-6.260;2024-03-29T04:21:17;4.22;89.99
71942;DHT22;59997;53.300;-6.260;2024-03-29T04:23:42;3.89;89.93
71942;DHT22;59997;53.300;-6.260;2024-03-29T04:26:08;3.90;90.14
71942;DHT22;59997;53.300;-6.260;2024-03-29T04:28:33;3.58;90.10
71942;DHT22;59997;53.300;-6.260;2024-03-29T04:31:00;3.68;90.34
71942;DHT22;59997;53.300;-6.260;2024-03-29T04:33:26;3.56;90.40
71942;DHT22;59997;53.300;-6.260;2024-03-29T04:38:22;3.31;90.46
71942;DHT22;59997;53.300;-6.260;2024-03-29T04:40:49;3.39;90.82
71942;DHT22;59997;53.300;-6.260;2024-03-29T04:43:14;3.34;90.89
71942;DHT22;59997;53.300;-6.260;2024-03-29T04:45:40;3.51;90.95
71942;DHT22;59997;53.300;-6.260;2024-03-29T04:48:06;3.65;91.10
71942;DHT22;59997;53.300;-6.260;2024-03-29T04:50:31;4.04;90.96
71942;DHT22;59997;53.300;-6.260;2024-03-29T04:52:57;3.93;90.80
71942;DHT22;59997;53.300;-6.260;2024-03-29T04:55:22;3.94;90.78
71942;DHT22;59997;53.300;-6.260;2024-03-29T04:57:47;3.97;90.63
71942;DHT22;59997;53.300;-6.260;2024-03-29T05:00:13;3.98;90.66
71942;DHT22;59997;53.300;-6.260;2024-03-29T05:02:39;3.79;90.64
71942;DHT22;59997;53.300;-6.260;2024-03-29T05:05:04;3.69;90.82
71942;DHT22;59997;53.300;-6.260;2024-03-29T05:07:30;3.83;90.91
71942;DHT22;59997;53.300;-6.260;2024-03-29T05:09:55;4.31;90.39
71942;DHT22;59997;53.300;-6.260;2024-03-29T05:12:21;4.45;89.95
71942;DHT22;59997;53.300;-6.260;2024-03-29T05:14:46;4.53;89.58
71942;DHT22;59997;53.300;-6.260;2024-03-29T05:17:14;4.65;89.37
71942;DHT22;59997;53.300;-6.260;2024-03-29T05:19:40;5.11;88.31
71942;DHT22;59997;53.300;-6.260;2024-03-29T05:22:05;5.28;87.85
71942;DHT22;59997;53.300;-6.260;2024-03-29T05:24:31;5.36;87.90
71942;DHT22;59997;53.300;-6.260;2024-03-29T05:26:57;5.47;87.28
71942;DHT22;59997;53.300;-6.260;2024-03-29T05:29:22;5.61;86.74
71942;DHT22;59997;53.300;-6.260;2024-03-29T05:31:48;5.63;86.78
71942;DHT22;59997;53.300;-6.260;2024-03-29T05:34:14;5.60;86.68
71942;DHT22;59997;53.300;-6.260;2024-03-29T05:36:40;5.49;86.90
71942;DHT22;59997;53.300;-6.260;2024-03-29T05:39:05;5.43;87.01
71942;DHT22;59997;53.300;-6.260;2024-03-29T05:41:31;5.73;86.13
71942;DHT22;59997;53.300;-6.260;2024-03-29T05:43:57;5.68;86.57
71942;DHT22;59997;53.300;-6.260;2024-03-29T05:46:23;5.54;86.67
71942;DHT22;59997;53.300;-6.260;2024-03-29T05:48:49;5.33;87.05
71942;DHT22;59997;53.300;-6.260;2024-03-29T05:51:14;5.21;87.40
71942;DHT22;59997;53.300;-6.260;2024-03-29T05:53:40;4.88;87.73
71942;DHT22;59997;53.300;-6.260;2024-03-29T05:56:06;4.53;88.03
71942;DHT22;59997;53.300;-6.260;2024-03-29T05:58:33;4.37;88.46
71942;DHT22;59997;53.300;-6.260;2024-03-29T06:00:59;4.11;88.66
71942;DHT22;59997;53.300;-6.260;2024-03-29T06:03:24;4.07;88.91
71942;DHT22;59997;53.300;-6.260;2024-03-29T06:05:50;3.90;88.96
71942;DHT22;59997;53.300;-6.260;2024-03-29T06:08:15;3.65;89.07
71942;DHT22;59997;53.300;-6.260;2024-03-29T06:10:41;3.55;89.29
71942;DHT22;59997;53.300;-6.260;2024-03-29T06:13:06;3.65;89.49
71942;DHT22;59997;53.300;-6.260;2024-03-29T06:15:34;4.08;89.50
71942;DHT22;59997;53.300;-6.260;2024-03-29T06:18:18;4.25;89.23
71942;DHT22;59997;53.300;-6.260;2024-03-29T06:20:45;4.28;89.17
71942;DHT22;59997;53.300;-6.260;2024-03-29T06:23:10;4.27;89.17
71942;DHT22;59997;53.300;-6.260;2024-03-29T06:25:36;4.38;89.07
71942;DHT22;59997;53.300;-6.260;2024-03-29T06:28:01;4.50;89.12
71942;DHT22;59997;53.300;-6.260;2024-03-29T06:30:27;4.50;89.06
71942;DHT22;59997;53.300;-6.260;2024-03-29T06:32:52;4.37;89.11
71942;DHT22;59997;53.300;-6.260;2024-03-29T06:35:18;4.39;89.21
71942;DHT22;59997;53.300;-6.260;2024-03-29T06:37:45;4.41;89.25
71942;DHT22;59997;53.300;-6.260;2024-03-29T06:40:11;4.34;89.28
71942;DHT22;59997;53.300;-6.260;2024-03-29T06:42:38;4.53;89.24
71942;DHT22;59997;53.300;-6.260;2024-03-29T06:45:04;4.80;89.23
71942;DHT22;59997;53.300;-6.260;2024-03-29T06:47:31;5.08;89.10
71942;DHT22;59997;53.300;-6.260;2024-03-29T06:49:57;5.64;88.59
71942;DHT22;59997;53.300;-6.260;2024-03-29T06:52:22;6.08;88.38
71942;DHT22;59997;53.300;-6.260;2024-03-29T06:54:48;6.77;86.81
71942;DHT22;59997;53.300;-6.260;2024-03-29T06:57:13;7.30;86.83
71942;DHT22;59997;53.300;-6.260;2024-03-29T06:59:42;7.69;85.63
71942;DHT22;59997;53.300;-6.260;2024-03-29T07:02:08;7.79;85.18
71942;DHT22;59997;53.300;-6.260;2024-03-29T07:04:35;7.81;84.80
71942;DHT22;59997;53.300;-6.260;2024-03-29T07:07:00;7.78;85.51
71942;DHT22;59997;53.300;-6.260;2024-03-29T07:09:26;7.64;85.94
71942;DHT22;59997;53.300;-6.260;2024-03-29T07:11:51;7.43;85.60
71942;DHT22;59997;53.300;-6.260;2024-03-29T07:14:18;7.41;85.62
71942;DHT22;59997;53.300;-6.260;2024-03-29T07:16:44;7.38;85.97
71942;DHT22;59997;53.300;-6.260;2024-03-29T07:19:10;7.30;85.75
71942;DHT22;59997;53.300;-6.260;2024-03-29T07:21:42;7.15;86.19
71942;DHT22;59997;53.300;-6.260;2024-03-29T07:24:08;7.09;86.70
71942;DHT22;59997;53.300;-6.260;2024-03-29T07:26:34;7.12;86.87
71942;DHT22;59997;53.300;-6.260;2024-03-29T07:29:00;7.12;87.04
71942;DHT22;59997;53.300;-6.260;2024-03-29T07:31:26;7.20;87.31
71942;DHT22;59997;53.300;-6.260;2024-03-29T07:33:51;7.23;87.49
71942;DHT22;59997;53.300;-6.260;2024-03-29T07:36:17;7.27;87.14
71942;DHT22;59997;53.300;-6.260;2024-03-29T07:38:43;7.44;87.32
71942;DHT22;59997;53.300;-6.260;2024-03-29T07:41:09;7.35;87.03
71942;DHT22;59997;53.300;-6.260;2024-03-29T07:43:39;7.24;86.22
71942;DHT22;59997;53.300;-6.260;2024-03-29T07:46:05;7.30;86.18
71942;DHT22;59997;53.300;-6.260;2024-03-29T07:48:34;7.28;86.50
71942;DHT22;59997;53.300;-6.260;2024-03-29T07:50:59;7.26;86.19
71942;DHT22;59997;53.300;-6.260;2024-03-29T07:53:25;7.23;86.40
71942;DHT22;59997;53.300;-6.260;2024-03-29T07:55:50;7.30;86.38
71942;DHT22;59997;53.300;-6.260;2024-03-29T07:58:16;7.46;86.42
71942;DHT22;59997;53.300;-6.260;2024-03-29T08:00:42;8.07;85.23
71942;DHT22;59997;53.300;-6.260;2024-03-29T08:03:08;8.54;85.10
71942;DHT22;59997;53.300;-6.260;2024-03-29T08:05:33;9.22;82.92
71942;DHT22;59997;53.300;-6.260;2024-03-29T08:08:00;10.45;80.03
71942;DHT22;59997;53.300;-6.260;2024-03-29T08:10:25;11.07;76.46
71942;DHT22;59997;53.300;-6.260;2024-03-29T08:12:51;12.08;76.12
71942;DHT22;59997;53.300;-6.260;2024-03-29T08:15:16;12.36;71.64
71942;DHT22;59997;53.300;-6.260;2024-03-29T08:17:44;12.92;70.40
71942;DHT22;59997;53.300;-6.260;2024-03-29T08:20:10;13.79;67.07
71942;DHT22;59997;53.300;-6.260;2024-03-29T08:22:36;14.33;67.74
71942;DHT22;59997;53.300;-6.260;2024-03-29T08:25:01;14.52;64.65
71942;DHT22;59997;53.300;-6.260;2024-03-29T08:27:27;14.21;63.55
71942;DHT22;59997;53.300;-6.260;2024-03-29T08:29:53;14.90;61.87
71942;DHT22;59997;53.300;-6.260;2024-03-29T08:32:18;15.55;62.17
71942;DHT22;59997;53.300;-6.260;2024-03-29T08:34:44;14.64;66.04
71942;DHT22;59997;53.300;-6.260;2024-03-29T08:37:09;13.55;67.65
71942;DHT22;59997;53.300;-6.260;2024-03-29T08:39:35;12.56;70.52
71942;DHT22;59997;53.300;-6.260;2024-03-29T08:42:03;12.69;71.73
71942;DHT22;59997;53.300;-6.260;2024-03-29T08:44:31;12.12;73.33
71942;DHT22;59997;53.300;-6.260;2024-03-29T08:46:56;11.97;73.69
71942;DHT22;59997;53.300;-6.260;2024-03-29T08:49:23;11.88;73.77
71942;DHT22;59997;53.300;-6.260;2024-03-29T08:51:49;12.26;72.87
71942;DHT22;59997;53.300;-6.260;2024-03-29T08:54:15;12.81;72.63
71942;DHT22;59997;53.300;-6.260;2024-03-29T08:56:40;11.99;69.66
71942;DHT22;59997;53.300;-6.260;2024-03-29T08:59:06;11.62;72.06
71942;DHT22;59997;53.300;-6.260;2024-03-29T09:01:41;11.63;72.70
71942;DHT22;59997;53.300;-6.260;2024-03-29T09:04:07;11.43;71.75
71942;DHT22;59997;53.300;-6.260;2024-03-29T09:06:39;11.88;72.25
71942;DHT22;59997;53.300;-6.260;2024-03-29T09:09:05;12.40;70.38
71942;DHT22;59997;53.300;-6.260;2024-03-29T09:11:31;11.91;70.34
71942;DHT22;59997;53.300;-6.260;2024-03-29T09:13:56;11.70;70.88
71942;DHT22;59997;53.300;-6.260;2024-03-29T09:16:24;11.47;71.29
71942;DHT22;59997;53.300;-6.260;2024-03-29T09:18:51;11.19;70.64
71942;DHT22;59997;53.300;-6.260;2024-03-29T09:21:16;11.00;71.49
71942;DHT22;59997;53.300;-6.260;2024-03-29T09:23:42;10.93;72.47
71942;DHT22;59997;53.300;-6.260;2024-03-29T09:26:07;10.98;71.93
71942;DHT22;59997;53.300;-6.260;2024-03-29T09:28:33;11.22;72.42
71942;DHT22;59997;53.300;-6.260;2024-03-29T09:31:00;11.18;70.70
71942;DHT22;59997;53.300;-6.260;2024-03-29T09:33:26;11.36;70.61
71942;DHT22;59997;53.300;-6.260;2024-03-29T09:35:51;12.32;67.59
71942;DHT22;59997;53.300;-6.260;2024-03-29T09:38:19;13.05;65.53
71942;DHT22;59997;53.300;-6.260;2024-03-29T09:40:45;13.24;65.05
71942;DHT22;59997;53.300;-6.260;2024-03-29T09:43:12;13.24;64.76
71942;DHT22;59997;53.300;-6.260;2024-03-29T09:45:40;12.89;64.63
71942;DHT22;59997;53.300;-6.260;2024-03-29T09:48:07;12.98;66.19
71942;DHT22;59997;53.300;-6.260;2024-03-29T09:50:34;13.90;65.51
71942;DHT22;59997;53.300;-6.260;2024-03-29T09:53:01;14.02;61.58
71942;DHT22;59997;53.300;-6.260;2024-03-29T09:55:28;13.67;65.14
71942;DHT22;59997;53.300;-6.260;2024-03-29T09:57:54;14.16;62.59
71942;DHT22;59997;53.300;-6.260;2024-03-29T10:00:19;14.30;61.93
71942;DHT22;59997;53.300;-6.260;2024-03-29T10:02:46;13.98;64.66
71942;DHT22;59997;53.300;-6.260;2024-03-29T10:05:14;13.43;65.08
71942;DHT22;59997;53.300;-6.260;2024-03-29T10:07:41;13.12;67.77
71942;DHT22;59997;53.300;-6.260;2024-03-29T10:10:08;13.12;68.52
71942;DHT22;59997;53.300;-6.260;2024-03-29T10:12:34;13.82;66.12
71942;DHT22;59997;53.300;-6.260;2024-03-29T10:14:59;15.21;62.35
71942;DHT22;59997;53.300;-6.260;2024-03-29T10:17:34;15.97;60.58
71942;DHT22;59997;53.300;-6.260;2024-03-29T10:20:02;16.90;58.52
71942;DHT22;59997;53.300;-6.260;2024-03-29T10:22:40;17.86;55.89
71942;DHT22;59997;53.300;-6.260;2024-03-29T10:25:06;17.98;54.31
71942;DHT22;59997;53.300;-6.260;2024-03-29T10:27:32;17.86;51.80
71942;DHT22;59997;53.300;-6.260;2024-03-29T10:29:59;16.56;51.39
71942;DHT22;59997;53.300;-6.260;2024-03-29T10:32:24;15.70;56.75
71942;DHT22;59997;53.300;-6.260;2024-03-29T10:34:50;15.49;58.50
71942;DHT22;59997;53.300;-6.260;2024-03-29T10:37:16;15.51;58.20
71942;DHT22;59997;53.300;-6.260;2024-03-29T10:39:50;16.11;55.47
71942;DHT22;59997;53.300;-6.260;2024-03-29T10:42:15;15.76;57.47
71942;DHT22;59997;53.300;-6.260;2024-03-29T10:44:42;16.31;57.87
71942;DHT22;59997;53.300;-6.260;2024-03-29T10:47:09;17.11;56.02
71942;DHT22;59997;53.300;-6.260;2024-03-29T10:49:40;17.57;58.22
71942;DHT22;59997;53.300;-6.260;2024-03-29T10:52:07;17.38;53.07
71942;DHT22;59997;53.300;-6.260;2024-03-29T10:54:34;15.59;55.90
71942;DHT22;59997;53.300;-6.260;2024-03-29T10:57:05;15.31;56.24
71942;DHT22;59997;53.300;-6.260;2024-03-29T11:04:53;18.56;52.31
71942;DHT22;59997;53.300;-6.260;2024-03-29T11:07:20;16.55;55.67
71942;DHT22;59997;53.300;-6.260;2024-03-29T11:09:50;16.70;57.77
71942;DHT22;59997;53.300;-6.260;2024-03-29T11:12:18;16.68;57.42
71942;DHT22;59997;53.300;-6.260;2024-03-29T11:14:58;15.42;58.97
71942;DHT22;59997;53.300;-6.260;2024-03-29T11:17:29;14.72;61.78
71942;DHT22;59997;53.300;-6.260;2024-03-29T11:19:56;13.93;64.16
71942;DHT22;59997;53.300;-6.260;2024-03-29T11:22:22;13.27;65.65
71942;DHT22;59997;53.300;-6.260;2024-03-29T11:24:50;12.96;67.00
71942;DHT22;59997;53.300;-6.260;2024-03-29T11:27:16;12.82;66.84
71942;DHT22;59997;53.300;-6.260;2024-03-29T11:29:44;12.92;68.71
71942;DHT22;59997;53.300;-6.260;2024-03-29T11:32:11;13.03;68.08
71942;DHT22;59997;53.300;-6.260;2024-03-29T11:34:43;13.36;67.92
71942;DHT22;59997;53.300;-6.260;2024-03-29T11:37:12;13.20;66.14
71942;DHT22;59997;53.300;-6.260;2024-03-29T11:39:47;12.98;66.20
71942;DHT22;59997;53.300;-6.260;2024-03-29T11:42:13;12.71;67.10
71942;DHT22;59997;53.300;-6.260;2024-03-29T11:44:38;12.29;67.76
71942;DHT22;59997;53.300;-6.260;2024-03-29T11:47:06;12.11;67.04
71942;DHT22;59997;53.300;-6.260;2024-03-29T11:49:32;12.02;69.49
71942;DHT22;59997;53.300;-6.260;2024-03-29T11:52:05;11.78;68.37
71942;DHT22;59997;53.300;-6.260;2024-03-29T11:54:38;11.82;68.96
71942;DHT22;59997;53.300;-6.260;2024-03-29T11:57:03;11.82;68.51
71942;DHT22;59997;53.300;-6.260;2024-03-29T11:59:29;11.47;69.41
71942;DHT22;59997;53.300;-6.260;2024-03-29T12:01:55;11.50;74.84
71942;DHT22;59997;53.300;-6.260;2024-03-29T12:04:21;11.63;74.35
71942;DHT22;59997;53.300;-6.260;2024-03-29T12:06:46;12.16;71.27
71942;DHT22;59997;53.300;-6.260;2024-03-29T12:09:13;12.22;68.14
71942;DHT22;59997;53.300;-6.260;2024-03-29T12:11:39;12.40;69.53
71942;DHT22;59997;53.300;-6.260;2024-03-29T12:14:12;12.51;68.65
71942;DHT22;59997;53.300;-6.260;2024-03-29T12:16:44;12.60;70.05
71942;DHT22;59997;53.300;-6.260;2024-03-29T12:19:21;12.69;70.83
71942;DHT22;59997;53.300;-6.260;2024-03-29T12:21:46;12.63;67.73
71942;DHT22;59997;53.300;-6.260;2024-03-29T12:24:12;12.58;66.74
71942;DHT22;59997;53.300;-6.260;2024-03-29T12:26:37;12.88;67.19
71942;DHT22;59997;53.300;-6.260;2024-03-29T12:29:03;13.50;65.01
71942;DHT22;59997;53.300;-6.260;2024-03-29T12:31:28;13.50;66.31
71942;DHT22;59997;53.300;-6.260;2024-03-29T12:33:54;13.20;66.37
71942;DHT22;59997;53.300;-6.260;2024-03-29T12:36:23;12.89;65.56
71942;DHT22;59997;53.300;-6.260;2024-03-29T12:38:49;13.17;66.20
71942;DHT22;59997;53.300;-6.260;2024-03-29T12:41:17;13.54;66.75
71942;DHT22;59997;53.300;-6.260;2024-03-29T12:43:43;13.61;65.45
71942;DHT22;59997;53.300;-6.260;2024-03-29T12:46:08;14.78;66.91
71942;DHT22;59997;53.300;-6.260;2024-03-29T12:48:35;15.07;62.74
71942;DHT22;59997;53.300;-6.260;2024-03-29T12:51:00;14.28;62.07
71942;DHT22;59997;53.300;-6.260;2024-03-29T12:53:28;14.08;65.78
71942;DHT22;59997;53.300;-6.260;2024-03-29T12:55:53;13.50;64.10
71942;DHT22;59997;53.300;-6.260;2024-03-29T12:58:19;13.03;67.90
71942;DHT22;59997;53.300;-6.260;2024-03-29T13:00:48;12.82;68.53
71942;DHT22;59997;53.300;-6.260;2024-03-29T13:03:13;12.84;69.58
71942;DHT22;59997;53.300;-6.260;2024-03-29T13:05:40;12.75;71.16
71942;DHT22;59997;53.300;-6.260;2024-03-29T13:08:11;12.67;71.62
71942;DHT22;59997;53.300;-6.260;2024-03-29T13:10:39;12.37;72.96
71942;DHT22;59997;53.300;-6.260;2024-03-29T13:13:06;12.21;73.52
71942;DHT22;59997;53.300;-6.260;2024-03-29T13:15:34;11.78;74.61
71942;DHT22;59997;53.300;-6.260;2024-03-29T13:18:01;11.62;75.74
71942;DHT22;59997;53.300;-6.260;2024-03-29T13:20:27;11.39;76.54
71942;DHT22;59997;53.300;-6.260;2024-03-29T13:22:52;11.46;77.73
71942;DHT22;59997;53.300;-6.260;2024-03-29T13:25:20;11.52;76.11
71942;DHT22;59997;53.300;-6.260;2024-03-29T13:27:50;11.67;76.47
71942;DHT22;59997;53.300;-6.260;2024-03-29T13:30:21;11.69;76.47
71942;DHT22;59997;53.300;-6.260;2024-03-29T13:32:47;11.56;76.24
71942;DHT22;59997;53.300;-6.260;2024-03-29T13:35:14;11.46;76.72
71942;DHT22;59997;53.300;-6.260;2024-03-29T13:37:41;11.35;75.67
71942;DHT22;59997;53.300;-6.260;2024-03-29T13:40:08;11.40;77.63
71942;DHT22;59997;53.300;-6.260;2024-03-29T13:42:35;11.26;78.67
71942;DHT22;59997;53.300;-6.260;2024-03-29T13:45:01;11.08;79.10
71942;DHT22;59997;53.300;-6.260;2024-03-29T13:47:26;11.11;81.51
71942;DHT22;59997;53.300;-6.260;2024-03-29T13:49:52;10.63;81.52
71942;DHT22;59997;53.300;-6.260;2024-03-29T13:52:20;10.60;83.50
71942;DHT22;59997;53.300;-6.260;2024-03-29T13:54:46;10.91;84.86
71942;DHT22;59997;53.300;-6.260;2024-03-29T13:57:18;11.39;83.59
71942;DHT22;59997;53.300;-6.260;2024-03-29T13:59:44;12.95;83.40
71942;DHT22;59997;53.300;-6.260;2024-03-29T14:02:17;13.60;82.12
71942;DHT22;59997;53.300;-6.260;2024-03-29T14:04:46;12.73;78.05
71942;DHT22;59997;53.300;-6.260;2024-03-29T14:07:13;13.08;80.43
71942;DHT22;59997;53.300;-6.260;2024-03-29T14:09:41;13.93;78.34
71942;DHT22;59997;53.300;-6.260;2024-03-29T14:12:07;14.85;76.66
71942;DHT22;59997;53.300;-6.260;2024-03-29T14:14:33;15.20;75.88
71942;DHT22;59997;53.300;-6.260;2024-03-29T14:16:59;14.55;73.89
71942;DHT22;59997;53.300;-6.260;2024-03-29T14:19:38;14.86;73.50
71942;DHT22;59997;53.300;-6.260;2024-03-29T14:22:04;14.57;70.77
71942;DHT22;59997;53.300;-6.260;2024-03-29T14:24:30;13.77;70.96
71942;DHT22;59997;53.300;-6.260;2024-03-29T14:26:58;12.50;74.42
71942;DHT22;59997;53.300;-6.260;2024-03-29T14:29:23;11.63;76.11
71942;DHT22;59997;53.300;-6.260;2024-03-29T14:31:49;11.19;78.41
71942;DHT22;59997;53.300;-6.260;2024-03-29T14:34:16;10.90;77.90
71942;DHT22;59997;53.300;-6.260;2024-03-29T14:36:41;10.63;79.09
71942;DHT22;59997;53.300;-6.260;2024-03-29T14:39:07;10.36;79.27
71942;DHT22;59997;53.300;-6.260;2024-03-29T14:41:32;10.21;79.26
71942;DHT22;59997;53.300;-6.260;2024-03-29T14:44:00;10.12;79.10
71942;DHT22;59997;53.300;-6.260;2024-03-29T14:46:26;10.70;82.56
71942;DHT22;59997;53.300;-6.260;2024-03-29T14:48:51;11.81;81.66
71942;DHT22;59997;53.300;-6.260;2024-03-29T14:51:17;12.26;76.82
71942;DHT22;59997;53.300;-6.260;2024-03-29T14:53:44;12.57;71.70
71942;DHT22;59997;53.300;-6.260;2024-03-29T14:56:15;13.26;77.07
71942;DHT22;59997;53.300;-6.260;2024-03-29T14:58:41;13.57;75.43
71942;DHT22;59997;53.300;-6.260;2024-03-29T15:01:06;13.71;74.33
71942;DHT22;59997;53.300;-6.260;2024-03-29T15:03:32;14.03;74.10
71942;DHT22;59997;53.300;-6.260;2024-03-29T15:05:57;14.23;75.78
71942;DHT22;59997;53.300;-6.260;2024-03-29T15:08:22;13.93;69.45
71942;DHT22;59997;53.300;-6.260;2024-03-29T15:11:00;13.82;71.18
71942;DHT22;59997;53.300;-6.260;2024-03-29T15:13:27;13.78;75.59
71942;DHT22;59997;53.300;-6.260;2024-03-29T15:15:58;13.64;74.44
71942;DHT22;59997;53.300;-6.260;2024-03-29T15:18:24;13.79;76.25
71942;DHT22;59997;53.300;-6.260;2024-03-29T15:20:57;13.54;72.18
71942;DHT22;59997;53.300;-6.260;2024-03-29T15:23:23;13.10;75.12
71942;DHT22;59997;53.300;-6.260;2024-03-29T15:25:55;12.73;74.21
71942;DHT22;59997;53.300;-6.260;2024-03-29T15:28:23;12.65;74.27